Time;durP1;ratioP1;P1;durP2;ratioP2;P2;SDS_P1;SDS_P2;PMS_P1;PMS_P2;Temp;Humidity;BMP_temperature;BMP_pressure;BME280_temperature;BME280_humidity;BME280_pressure;Samples;Min_cycle;Max_cycle;Signal;HPM_P1;HPM_P2
2021/12/01 00:01:49;;;;;;;5.45;2.20;;;1.30;96.00;;;;;;5101593;28;20080;-73
2021/12/01 00:04:15;;;;;;;6.20;2.45;;;1.40;95.90;;;;;;5109177;28;20119;-72
2021/12/01 00:06:40;;;;;;;4.07;2.08;;;1.40;95.90;;;;;;5096966;28;20102;-72
2021/12/01 00:09:06;;;;;;;4.95;2.15;;;1.30;96.30;;;;;;5110760;28;20428;-72
2021/12/01 00:11:32;;;;;;;7.00;2.50;;;1.50;95.80;;;;;;5103255;28;20500;-72
2021/12/01 00:13:58;;;;;;;3.80;1.80;;;1.70;95.30;;;;;;5110995;28;20026;-72
2021/12/01 00:16:24;;;;;;;4.38;1.90;;;1.60;95.60;;;;;;5094375;28;20382;-72
2021/12/01 00:18:49;;;;;;;3.50;1.98;;;1.60;95.70;;;;;;5090009;28;20038;-72
2021/12/01 00:21:15;;;;;;;5.57;2.55;;;1.50;95.70;;;;;;5092750;28;20378;-72
2021/12/01 00:23:41;;;;;;;5.90;2.58;;;1.30;96.00;;;;;;5089775;28;20035;-73
2021/12/01 00:26:07;;;;;;;4.00;2.33;;;1.10;96.60;;;;;;5101441;28;20032;-72
2021/12/01 00:28:33;;;;;;;6.57;2.53;;;1.20;96.40;;;;;;5100113;28;20114;-72
2021/12/01 00:30:59;;;;;;;7.18;2.08;;;1.50;96.00;;;;;;5106021;28;20114;-72
2021/12/01 00:33:25;;;;;;;5.00;2.70;;;1.50;96.00;;;;;;5104690;28;20393;-72
2021/12/01 00:35:54;;;;;;;3.97;2.13;;;1.50;96.10;;;;;;5103473;28;20035;-72
2021/12/01 00:38:20;;;;;;;4.38;1.83;;;1.90;95.40;;;;;;5094544;28;20028;-72
2021/12/01 00:40:46;;;;;;;6.38;2.47;;;1.80;95.50;;;;;;5093480;28;20024;-72
2021/12/01 00:43:19;;;;;;;6.05;2.47;;;2.00;95.10;;;;;;5109920;28;20382;-72
2021/12/01 00:46:08;;;;;;;5.45;2.83;;;2.00;94.90;;;;;;5105650;28;20570;-72
2021/12/01 00:48:34;;;;;;;5.97;2.60;;;2.00;95.40;;;;;;5091224;28;20474;-72
2021/12/01 00:51:00;;;;;;;6.15;3.00;;;1.70;95.80;;;;;;5102637;28;20077;-72
2021/12/01 00:53:25;;;;;;;5.97;2.72;;;1.40;96.30;;;;;;5095945;28;20035;-72
2021/12/01 00:55:51;;;;;;;8.63;5.53;;;1.20;96.60;;;;;;5109557;28;20035;-72
2021/12/01 00:58:17;;;;;;;4.20;2.13;;;1.20;97.00;;;;;;5104204;28;20059;-72
2021/12/01 01:00:47;;;;;;;5.13;2.40;;;1.10;97.10;;;;;;5091090;28;20032;-72
2021/12/01 01:03:12;;;;;;;4.57;2.08;;;1.30;96.80;;;;;;5101260;28;20128;-72
2021/12/01 01:05:38;;;;;;;6.22;2.17;;;1.20;97.00;;;;;;5106761;28;20481;-72
2021/12/01 01:08:05;;;;;;;6.18;2.70;;;1.30;96.70;;;;;;5103086;28;20038;-72
2021/12/01 01:10:46;;;;;;;5.32;2.50;;;1.60;95.90;;;;;;5101355;28;20028;-72
2021/12/01 01:18:48;;;;;;;6.47;2.08;;;1.50;96.10;;;;;;5094214;28;20090;-73
2021/12/01 01:21:15;;;;;;;5.55;1.90;;;1.50;96.00;;;;;;5093211;28;20393;-72
2021/12/01 01:23:41;;;;;;;5.95;2.35;;;1.20;96.70;;;;;;5093577;28;20393;-72
2021/12/01 01:26:12;;;;;;;4.13;2.05;;;1.10;97.10;;;;;;5093920;28;20032;-73
2021/12/01 01:28:38;;;;;;;4.80;1.60;;;1.20;97.00;;;;;;5091874;28;20028;-72
2021/12/01 01:31:04;;;;;;;4.68;2.15;;;1.10;97.00;;;;;;5091229;28;20047;-72
2021/12/01 01:33:30;;;;;;;4.85;2.15;;;1.10;97.30;;;;;;5100582;28;20024;-73
2021/12/01 01:35:56;;;;;;;4.97;1.92;;;1.10;97.30;;;;;;5104636;28;20489;-73
2021/12/01 01:38:21;;;;;;;6.85;2.40;;;1.20;97.20;;;;;;5102983;28;20107;-72
2021/12/01 01:40:48;;;;;;;5.53;2.30;;;1.30;97.00;;;;;;5103373;28;20040;-73
2021/12/01 01:43:14;;;;;;;4.50;2.40;;;1.60;96.70;;;;;;5108550;28;20027;-72
2021/12/01 01:45:40;;;;;;;4.90;2.72;;;1.30;96.90;;;;;;5104433;28;20054;-72
2021/12/01 01:48:11;;;;;;;5.35;2.00;;;1.20;97.20;;;;;;5103812;28;20056;-73
2021/12/01 01:50:40;;;;;;;5.28;2.50;;;1.60;96.60;;;;;;5100790;28;20085;-73
2021/12/01 01:53:19;;;;;;;6.25;3.17;;;1.60;96.50;;;;;;5109606;28;20027;-73
2021/12/01 01:55:47;;;;;;;4.30;1.95;;;1.40;96.80;;;;;;5101070;28;20505;-72
2021/12/01 01:58:14;;;;;;;5.22;2.30;;;1.10;97.40;;;;;;5103639;28;20121;-72
2021/12/01 02:01:20;;;;;;;5.30;1.95;;;1.20;97.30;;;;;;5096484;28;20042;-72
2021/12/01 02:03:43;;;;;;;4.28;1.75;;;1.10;97.40;;;;;;5108446;28;20397;-72
2021/12/01 02:06:11;;;;;;;5.18;2.03;;;1.00;97.30;;;;;;5108010;28;20074;-72
2021/12/01 02:08:40;;;;;;;2.97;1.58;;;0.90;97.70;;;;;;5104533;28;20032;-72
2021/12/01 02:11:10;;;;;;;4.60;2.20;;;0.90;97.90;;;;;;5097007;28;20020;-72
2021/12/01 02:13:37;;;;;;;2.95;1.48;;;0.80;98.20;;;;;;5097742;28;20485;-72
2021/12/01 02:16:03;;;;;;;5.22;1.92;;;0.80;98.30;;;;;;5096362;28;20031;-72
2021/12/01 02:18:29;;;;;;;11.65;7.00;;;0.80;98.30;;;;;;5103331;28;20074;-73
2021/12/01 02:21:29;;;;;;;5.70;2.17;;;0.90;98.30;;;;;;5108245;28;20492;-72
2021/12/01 02:24:00;;;;;;;5.13;1.88;;;0.90;98.10;;;;;;5098675;28;20019;-72
2021/12/01 02:26:29;;;;;;;4.45;1.73;;;1.00;98.10;;;;;;5105162;28;20424;-72
2021/12/01 02:28:57;;;;;;;5.25;2.13;;;0.90;98.30;;;;;;5095471;28;20035;-72
2021/12/01 02:31:30;;;;;;;6.57;2.22;;;0.80;98.40;;;;;;5112513;27;20031;-72
2021/12/01 02:33:56;;;;;;;6.22;2.80;;;1.00;98.30;;;;;;5113394;28;20020;-72
2021/12/01 02:36:23;;;;;;;5.05;2.42;;;1.00;98.20;;;;;;5112230;28;20024;-72
2021/12/01 02:38:49;;;;;;;3.28;1.77;;;0.80;98.50;;;;;;5105691;28;20028;-72
2021/12/01 02:41:24;;;;;;;3.80;1.58;;;0.80;98.40;;;;;;5099611;28;20021;-72
2021/12/01 02:43:50;;;;;;;5.70;2.17;;;0.90;98.60;;;;;;5111232;28;20035;-72
2021/12/01 02:46:16;;;;;;;4.90;1.77;;;1.10;98.00;;;;;;5101113;28;20127;-72
2021/12/01 02:48:42;;;;;;;3.28;1.58;;;1.20;98.20;;;;;;5099593;28;20489;-72
2021/12/01 02:51:09;;;;;;;10.25;5.03;;;1.10;98.10;;;;;;5103282;27;20023;-72
2021/12/01 02:53:36;;;;;;;6.30;1.92;;;1.20;98.20;;;;;;5093441;28;20016;-72
2021/12/01 02:56:04;;;;;;;3.75;1.85;;;1.10;98.30;;;;;;5106666;28;20576;-73
2021/12/01 02:58:32;;;;;;;4.25;2.08;;;1.30;98.10;;;;;;5093513;28;20027;-72
2021/12/01 03:01:03;;;;;;;4.43;2.28;;;1.30;98.00;;;;;;5096582;28;20102;-72
2021/12/01 03:03:30;;;;;;;3.90;1.85;;;1.30;98.10;;;;;;5093569;28;20023;-73
2021/12/01 03:05:57;;;;;;;4.75;2.15;;;1.50;98.00;;;;;;5096625;28;20040;-72
2021/12/01 03:08:24;;;;;;;4.32;2.40;;;1.50;97.90;;;;;;5112451;28;20489;-72
2021/12/01 03:10:53;;;;;;;4.63;1.75;;;1.40;97.80;;;;;;5099596;28;20608;-72
2021/12/01 03:13:21;;;;;;;5.18;1.85;;;1.30;98.00;;;;;;5099308;28;20024;-72
2021/12/01 03:15:47;;;;;;;5.30;1.90;;;1.40;98.10;;;;;;5109796;28;20027;-73
2021/12/01 03:18:14;;;;;;;3.38;1.67;;;1.40;98.30;;;;;;5112617;28;20024;-72
2021/12/01 03:20:41;;;;;;;6.82;2.72;;;1.40;98.30;;;;;;5104701;28;20043;-73
2021/12/01 03:23:08;;;;;;;8.18;4.07;;;1.30;98.60;;;;;;5097195;28;20481;-72
2021/12/01 03:25:34;;;;;;;9.65;5.03;;;1.00;98.60;;;;;;5098709;28;20027;-72
2021/12/01 03:28:00;;;;;;;32.63;19.30;;;0.90;99.20;;;;;;5101990;27;20057;-73
2021/12/01 03:30:27;;;;;;;8.00;4.63;;;0.80;99.40;;;;;;5109873;28;20031;-72
2021/12/01 03:32:52;;;;;;;16.25;8.45;;;0.60;99.80;;;;;;5109048;28;20386;-72
2021/12/01 03:35:19;;;;;;;28.48;16.23;;;0.70;99.60;;;;;;5111731;28;20028;-73
2021/12/01 03:37:46;;;;;;;7.95;4.72;;;0.80;99.60;;;;;;5109471;28;20057;-72
2021/12/01 03:40:14;;;;;;;6.45;3.00;;;0.80;99.90;;;;;;5108782;28;20031;-72
2021/12/01 03:42:41;;;;;;;5.85;2.97;;;0.70;99.90;;;;;;5102387;28;20033;-72
2021/12/01 03:45:07;;;;;;;6.07;2.17;;;0.80;99.70;;;;;;5111915;28;20055;-72
2021/12/01 03:47:34;;;;;;;4.25;1.88;;;0.90;99.40;;;;;;5110875;28;20043;-72
2021/12/01 03:50:00;;;;;;;3.85;1.65;;;1.10;99.20;;;;;;5093548;28;20024;-72
2021/12/01 03:52:27;;;;;;;3.25;1.50;;;1.00;99.30;;;;;;5097250;28;20016;-72
2021/12/01 03:54:53;;;;;;;3.97;2.10;;;1.00;99.50;;;;;;5099805;28;20028;-72
2021/12/01 03:57:19;;;;;;;3.75;1.65;;;1.30;98.90;;;;;;5100651;28;20024;-73
2021/12/01 03:59:45;;;;;;;3.88;2.10;;;1.60;98.00;;;;;;5104320;28;20032;-72
2021/12/01 04:02:11;;;;;;;8.18;1.95;;;1.90;97.60;;;;;;5094529;28;20101;-72
2021/12/01 04:04:37;;;;;;;4.53;2.38;;;1.90;97.40;;;;;;5084072;28;20027;-72
2021/12/01 04:07:03;;;;;;;5.80;2.72;;;1.60;97.80;;;;;;5102317;28;20142;-72
2021/12/01 04:09:30;;;;;;;7.22;2.70;;;1.00;98.40;;;;;;5098527;28;20086;-72
2021/12/01 04:11:56;;;;;;;3.95;2.22;;;0.90;99.70;;;;;;5084156;28;20016;-71
2021/12/01 04:14:22;;;;;;;5.60;2.25;;;0.80;99.90;;;;;;5090072;28;20088;-71
2021/12/01 04:16:48;;;;;;;5.35;2.30;;;0.70;99.70;;;;;;5097216;28;20042;-72
2021/12/01 04:19:14;;;;;;;4.30;2.03;;;0.70;99.70;;;;;;5091377;28;20028;-71
2021/12/01 04:21:39;;;;;;;4.18;1.67;;;1.00;99.70;;;;;;5083894;28;20462;-71
2021/12/01 04:24:06;;;;;;;9.40;1.90;;;1.10;99.40;;;;;;5087051;28;20028;-71
2021/12/01 04:26:33;;;;;;;6.70;1.80;;;1.10;99.40;;;;;;5093327;28;20087;-71
2021/12/01 04:29:00;;;;;;;4.95;2.55;;;0.80;99.80;;;;;;5097368;28;20028;-72
2021/12/01 04:31:29;;;;;;;2.78;1.55;;;0.80;99.90;;;;;;5096869;28;20024;-71
2021/12/01 04:33:55;;;;;;;3.53;1.92;;;1.00;99.80;;;;;;5094772;28;20065;-72
2021/12/01 04:36:26;;;;;;;3.60;1.83;;;0.90;99.80;;;;;;5091477;28;21065;-72
2021/12/01 04:38:52;;;;;;;4.25;2.05;;;0.90;99.90;;;;;;5088024;28;20533;-72
2021/12/01 04:41:19;;;;;;;2.63;1.40;;;0.90;99.90;;;;;;5096969;28;20384;-71
2021/12/01 04:43:46;;;;;;;3.60;1.70;;;1.10;99.50;;;;;;5092073;28;20551;-71
2021/12/01 04:46:19;;;;;;;3.28;1.67;;;1.20;99.30;;;;;;5104546;28;20119;-72
2021/12/01 04:48:44;;;;;;;3.78;1.70;;;1.20;99.20;;;;;;5088186;28;20035;-71
2021/12/01 04:51:10;;;;;;;3.65;1.95;;;1.20;99.30;;;;;;5100786;28;20019;-72
2021/12/01 04:53:37;;;;;;;4.68;2.20;;;1.00;99.60;;;;;;5100178;28;20114;-72
2021/12/01 04:56:04;;;;;;;5.80;2.60;;;1.00;99.70;;;;;;5087214;28;20476;-72
2021/12/01 04:58:30;;;;;;;5.32;2.58;;;0.80;99.70;;;;;;5099966;28;20034;-71
2021/12/01 05:00:58;;;;;;;6.10;2.63;;;0.60;99.90;;;;;;5095445;28;20114;-72
2021/12/01 05:03:23;;;;;;;5.05;2.65;;;0.40;99.90;;;;;;5103963;28;20520;-72
2021/12/01 05:05:50;;;;;;;4.88;1.85;;;0.50;99.90;;;;;;5096347;28;20024;-71
2021/12/01 05:08:16;;;;;;;4.15;1.70;;;0.70;99.90;;;;;;5103314;28;20023;-72
2021/12/01 05:10:42;;;;;;;4.53;1.45;;;0.90;99.90;;;;;;5098056;28;20034;-71
2021/12/01 05:13:08;;;;;;;3.95;1.45;;;1.00;99.90;;;;;;5102079;28;20119;-71
2021/12/01 05:15:34;;;;;;;5.35;1.98;;;0.90;99.90;;;;;;5092418;28;20509;-71
2021/12/01 05:17:59;;;;;;;3.03;1.25;;;0.90;99.90;;;;;;5094589;28;20050;-71
2021/12/01 05:20:25;;;;;;;3.97;1.75;;;0.80;99.90;;;;;;5099825;28;20020;-71
2021/12/01 05:22:51;;;;;;;5.78;2.17;;;0.80;99.90;;;;;;5090045;28;20478;-71
2021/12/01 05:25:16;;;;;;;3.53;1.70;;;0.80;99.90;;;;;;5095895;28;20051;-71
2021/12/01 05:27:42;;;;;;;4.72;2.25;;;1.00;99.90;;;;;;5087213;28;20040;-72
2021/12/01 05:30:08;;;;;;;4.28;2.35;;;1.00;99.90;;;;;;5085645;28;20462;-71
2021/12/01 05:32:34;;;;;;;5.25;2.22;;;0.90;99.90;;;;;;5091379;28;20046;-72
2021/12/01 05:35:00;;;;;;;3.72;1.70;;;0.60;99.90;;;;;;5098707;28;20028;-71
2021/12/01 05:37:26;;;;;;;4.07;1.42;;;0.40;99.90;;;;;;5088374;28;20038;-71
2021/12/01 05:39:52;;;;;;;2.92;1.50;;;0.40;99.90;;;;;;5084690;28;20676;-72
2021/12/01 05:42:18;;;;;;;3.95;1.60;;;0.60;99.90;;;;;;5101999;28;20035;-72
2021/12/01 05:44:44;;;;;;;3.78;1.83;;;1.10;99.90;;;;;;5104219;28;20462;-72
2021/12/01 05:47:10;;;;;;;3.78;1.83;;;1.10;99.90;;;;;;5102681;28;20573;-71
2021/12/01 05:49:41;;;;;;;6.03;2.13;;;1.00;99.90;;;;;;5095814;28;20115;-71
2021/12/01 05:52:08;;;;;;;4.72;1.80;;;1.00;99.90;;;;;;5103833;28;20027;-72
2021/12/01 05:54:35;;;;;;;3.60;1.58;;;0.90;99.90;;;;;;5107080;28;20075;-71
2021/12/01 05:57:01;;;;;;;3.28;1.33;;;0.70;99.90;;;;;;5099509;28;20625;-71
2021/12/01 05:59:27;;;;;;;5.45;1.77;;;0.60;99.90;;;;;;5099790;27;20024;-71
2021/12/01 06:01:52;;;;;;;4.22;2.20;;;0.70;99.90;;;;;;5100306;28;20027;-71
2021/12/01 06:04:18;;;;;;;7.07;1.77;;;0.80;99.90;;;;;;5090757;28;20834;-71
2021/12/01 06:06:44;;;;;;;3.47;1.60;;;0.80;99.90;;;;;;5099651;28;20036;-71
2021/12/01 06:09:10;;;;;;;3.90;1.63;;;0.80;99.90;;;;;;5106653;28;20031;-71
2021/12/01 06:11:36;;;;;;;6.75;2.00;;;0.80;99.90;;;;;;5087208;28;20108;-71
2021/12/01 06:14:02;;;;;;;4.18;2.05;;;0.90;99.90;;;;;;5102955;28;20461;-72
2021/12/01 06:16:28;;;;;;;5.70;2.83;;;1.00;99.90;;;;;;5099002;28;20386;-72
2021/12/01 06:18:54;;;;;;;4.70;2.58;;;1.10;99.90;;;;;;5096857;28;20038;-71
2021/12/01 06:21:19;;;;;;;5.18;2.40;;;1.10;99.90;;;;;;5094195;28;20050;-71
2021/12/01 06:23:45;;;;;;;5.28;2.53;;;1.00;99.90;;;;;;5097415;28;20035;-71
2021/12/01 06:26:11;;;;;;;6.20;3.58;;;1.00;99.90;;;;;;5101624;28;20027;-72
2021/12/01 06:28:38;;;;;;;6.03;3.15;;;0.80;99.90;;;;;;5094605;28;20027;-72
2021/12/01 06:31:03;;;;;;;6.78;3.38;;;0.90;99.90;;;;;;5103188;28;20015;-72
2021/12/01 06:33:29;;;;;;;6.78;3.40;;;0.90;99.90;;;;;;5096130;28;20111;-71
2021/12/01 06:35:55;;;;;;;9.57;2.72;;;0.90;99.90;;;;;;5104872;27;20038;-72
2021/12/01 06:38:21;;;;;;;5.63;2.65;;;0.70;99.90;;;;;;5095092;28;20022;-72
2021/12/01 06:40:48;;;;;;;6.47;2.30;;;0.60;99.90;;;;;;5085635;28;20078;-71
2021/12/01 06:43:14;;;;;;;5.25;2.63;;;0.50;99.90;;;;;;5097287;28;20641;-71
2021/12/01 06:45:40;;;;;;;5.95;2.55;;;0.30;99.90;;;;;;5102744;28;20047;-71
2021/12/01 06:48:06;;;;;;;6.60;3.25;;;0.30;99.90;;;;;;5099276;28;20082;-71
2021/12/01 06:50:32;;;;;;;5.53;3.58;;;0.10;99.90;;;;;;5096907;28;20092;-71
2021/12/01 06:52:58;;;;;;;5.32;2.60;;;0.10;99.90;;;;;;5097015;28;20032;-71
2021/12/01 06:55:24;;;;;;;5.90;2.55;;;0.20;99.90;;;;;;5102124;27;20019;-71
2021/12/01 06:57:50;;;;;;;7.32;3.42;;;0.30;99.90;;;;;;5096370;28;20027;-71
2021/12/01 07:00:17;;;;;;;8.23;3.85;;;0.40;99.90;;;;;;5105258;28;20064;-71
2021/12/01 07:02:43;;;;;;;7.45;4.68;;;0.50;99.90;;;;;;5099622;28;20033;-71
2021/12/01 07:05:10;;;;;;;7.85;4.05;;;0.70;99.90;;;;;;5090825;28;20023;-71
2021/12/01 07:07:37;;;;;;;5.75;2.97;;;0.60;99.90;;;;;;5099760;28;20055;-71
2021/12/01 07:10:09;;;;;;;8.50;3.78;;;0.90;99.90;;;;;;5100192;28;20031;-71
2021/12/01 07:12:35;;;;;;;7.57;3.65;;;1.10;99.90;;;;;;5097777;28;20043;-70
2021/12/01 07:15:01;;;;;;;9.45;4.65;;;1.00;99.90;;;;;;5088475;28;20468;-71
2021/12/01 07:17:26;;;;;;;9.60;4.28;;;1.00;99.90;;;;;;5087619;28;20103;-71
2021/12/01 07:19:52;;;;;;;7.25;3.42;;;1.00;99.90;;;;;;5102365;28;20032;-72
2021/12/01 07:22:18;;;;;;;7.55;3.33;;;1.10;99.90;;;;;;5085419;28;20027;-71
2021/12/01 07:24:45;;;;;;;5.55;3.28;;;0.90;99.90;;;;;;5091125;28;20114;-72
2021/12/01 07:27:11;;;;;;;7.05;3.40;;;0.80;99.90;;;;;;5088703;28;20171;-72
2021/12/01 07:29:37;;;;;;;6.75;3.38;;;0.90;99.90;;;;;;5086241;28;20020;-72
2021/12/01 07:32:04;;;;;;;7.28;3.65;;;0.90;99.90;;;;;;5085627;28;20039;-72
2021/12/01 07:34:30;;;;;;;6.25;3.05;;;0.80;99.90;;;;;;5098433;28;20036;-71
2021/12/01 07:36:55;;;;;;;5.95;2.72;;;0.70;99.90;;;;;;5100401;28;20028;-72
2021/12/01 07:39:21;;;;;;;7.38;3.20;;;0.70;99.90;;;;;;5088255;28;20032;-72
2021/12/01 07:41:48;;;;;;;4.95;2.70;;;0.80;99.90;;;;;;5098247;28;20837;-72
2021/12/01 07:44:14;;;;;;;5.38;2.40;;;0.70;99.90;;;;;;5099204;28;20133;-71
2021/12/01 07:46:40;;;;;;;7.13;3.45;;;0.70;99.90;;;;;;5095685;28;20051;-72
2021/12/01 07:49:06;;;;;;;5.60;2.42;;;0.70;99.90;;;;;;5085505;28;20027;-71
2021/12/01 07:51:32;;;;;;;6.68;2.53;;;0.80;99.90;;;;;;5083642;28;20103;-72
2021/12/01 07:53:58;;;;;;;7.32;3.63;;;0.60;99.90;;;;;;5097206;28;20032;-74
2021/12/01 07:56:24;;;;;;;9.40;4.25;;;0.60;99.90;;;;;;5090843;27;20401;-72
2021/12/01 07:58:50;;;;;;;6.47;2.42;;;1.00;99.90;;;;;;5091387;28;20028;-72
2021/12/01 08:01:16;;;;;;;4.55;2.72;;;0.70;99.90;;;;;;5101359;28;20495;-71
2021/12/01 08:03:42;;;;;;;7.03;3.05;;;0.60;99.90;;;;;;5088108;28;20040;-72
2021/12/01 08:06:08;;;;;;;7.65;3.28;;;0.60;99.90;;;;;;5083771;28;20127;-72
2021/12/01 08:08:34;;;;;;;7.40;3.03;;;0.60;99.90;;;;;;5084023;28;20024;-72
2021/12/01 08:10:59;;;;;;;3.95;2.33;;;0.50;99.90;;;;;;5094919;28;20548;-72
2021/12/01 08:13:25;;;;;;;9.75;5.15;;;0.40;99.90;;;;;;5090072;28;20023;-72
2021/12/01 08:15:51;;;;;;;11.15;6.75;;;0.50;99.90;;;;;;5089273;28;20963;-72
2021/12/01 08:18:18;;;;;;;14.85;3.70;;;0.50;99.90;;;;;;5105689;28;20042;-72
2021/12/01 08:20:44;;;;;;;6.13;3.22;;;0.60;99.90;;;;;;5104215;28;20741;-72
2021/12/01 08:23:10;;;;;;;5.35;2.90;;;0.50;99.90;;;;;;5102820;28;20043;-72
2021/12/01 08:25:36;;;;;;;6.25;2.90;;;0.50;99.90;;;;;;5088657;28;20108;-72
2021/12/01 08:28:02;;;;;;;12.60;5.93;;;0.40;99.90;;;;;;5096004;28;20045;-72
2021/12/01 08:30:29;;;;;;;8.30;5.03;;;0.50;99.90;;;;;;5096435;28;20031;-72
2021/12/01 08:32:55;;;;;;;7.32;4.45;;;0.60;99.90;;;;;;5102557;28;20027;-72
2021/12/01 08:35:21;;;;;;;9.23;3.45;;;0.80;99.90;;;;;;5105068;28;20355;-72
2021/12/01 08:37:47;;;;;;;7.63;3.75;;;0.70;99.90;;;;;;5105049;28;20028;-71
2021/12/01 08:40:15;;;;;;;5.53;3.30;;;0.70;99.90;;;;;;5101459;28;20090;-72
2021/12/01 08:42:41;;;;;;;5.90;2.95;;;0.70;99.90;;;;;;5099509;28;20089;-72
2021/12/01 08:45:08;;;;;;;5.13;2.75;;;0.70;99.90;;;;;;5101641;28;20107;-72
2021/12/01 08:47:34;;;;;;;6.78;3.08;;;0.80;99.90;;;;;;5102213;28;20062;-72
2021/12/01 08:49:59;;;;;;;5.53;2.97;;;0.80;99.90;;;;;;5086747;28;20462;-72
2021/12/01 08:52:25;;;;;;;5.20;2.70;;;0.90;99.90;;;;;;5083452;28;20031;-72
2021/12/01 08:54:51;;;;;;;6.75;2.83;;;0.80;99.90;;;;;;5084179;28;20548;-72
2021/12/01 08:57:17;;;;;;;6.80;3.35;;;0.80;99.90;;;;;;5103692;28;20058;-72
2021/12/01 08:59:44;;;;;;;7.78;3.33;;;0.70;99.90;;;;;;5100293;28;20047;-72
2021/12/01 09:02:11;;;;;;;8.02;3.40;;;0.70;99.90;;;;;;5084895;28;20028;-72
2021/12/01 09:04:36;;;;;;;6.47;3.42;;;0.80;99.90;;;;;;5084506;28;20030;-72
2021/12/01 09:07:04;;;;;;;6.50;3.75;;;0.80;99.90;;;;;;5084018;28;20040;-72
2021/12/01 09:09:30;;;;;;;5.78;3.25;;;0.80;99.90;;;;;;5084412;28;20028;-72
2021/12/01 09:11:56;;;;;;;7.55;3.25;;;0.80;99.90;;;;;;5089475;28;20028;-71
2021/12/01 09:14:23;;;;;;;6.22;3.03;;;0.90;99.90;;;;;;5086534;28;20020;-72
2021/12/01 09:16:51;;;;;;;7.25;3.25;;;0.90;99.90;;;;;;5087009;28;20081;-72
2021/12/01 09:19:17;;;;;;;9.55;3.63;;;1.00;99.90;;;;;;5100951;28;20081;-71
2021/12/01 09:21:43;;;;;;;5.80;2.72;;;0.90;99.90;;;;;;5104304;28;20078;-72
2021/12/01 09:24:09;;;;;;;4.45;2.28;;;1.10;99.90;;;;;;5088729;28;20028;-72
2021/12/01 09:26:36;;;;;;;5.95;2.53;;;1.20;99.90;;;;;;5103443;28;20035;-71
2021/12/01 09:29:03;;;;;;;5.15;2.25;;;1.10;99.90;;;;;;5109087;28;20106;-72
2021/12/01 09:31:29;;;;;;;4.68;2.05;;;1.20;99.90;;;;;;5090467;28;20122;-72
2021/12/01 09:33:55;;;;;;;7.70;2.30;;;1.30;99.90;;;;;;5103010;28;20026;-71
2021/12/01 09:36:21;;;;;;;5.65;2.88;;;1.20;99.90;;;;;;5105918;28;20024;-72
2021/12/01 09:38:47;;;;;;;6.47;2.40;;;1.30;99.90;;;;;;5097384;28;20089;-72
2021/12/01 09:41:14;;;;;;;4.35;2.20;;;1.40;99.90;;;;;;5088718;28;20032;-72
2021/12/01 09:43:40;;;;;;;20.63;10.68;;;1.20;99.90;;;;;;5087617;28;20049;-71
2021/12/01 09:46:09;;;;;;;7.43;3.50;;;1.20;99.90;;;;;;5086513;28;20059;-72
2021/12/01 09:48:39;;;;;;;5.25;2.70;;;1.40;99.90;;;;;;5085344;28;20017;-72
2021/12/01 09:51:06;;;;;;;8.18;2.65;;;1.50;99.90;;;;;;5094362;28;20028;-72
2021/12/01 09:53:32;;;;;;;5.40;2.85;;;1.40;99.90;;;;;;5098929;28;20080;-72
2021/12/01 09:55:58;;;;;;;4.57;2.30;;;1.50;99.90;;;;;;5095962;28;20063;-72
2021/12/01 09:58:31;;;;;;;6.40;2.65;;;1.50;99.90;;;;;;5108490;28;20053;-72
2021/12/01 10:01:05;;;;;;;5.05;2.58;;;1.60;99.90;;;;;;5105455;28;20030;-72
2021/12/01 10:03:31;;;;;;;;;;;1.60;99.90;;;;;;5097592;28;20565;-72
2021/12/01 10:06:04;;;;;;;7.55;2.55;;;1.50;99.90;;;;;;5104912;28;20014;-72
2021/12/01 10:08:34;;;;;;;6.30;2.63;;;1.50;99.90;;;;;;5106939;28;20059;-72
2021/12/01 10:11:13;;;;;;;5.75;2.72;;;1.50;99.90;;;;;;5106898;28;20020;-72
2021/12/01 10:13:41;;;;;;;6.40;2.95;;;1.60;99.90;;;;;;5108093;28;20019;-72
2021/12/01 10:16:10;;;;;;;5.78;3.08;;;1.70;99.90;;;;;;5100927;28;20636;-72
2021/12/01 10:18:44;;;;;;;5.95;2.78;;;1.70;99.90;;;;;;5107462;28;20020;-71
2021/12/01 10:21:13;;;;;;;6.07;2.15;;;1.50;99.90;;;;;;5087596;28;20024;-72
2021/12/01 10:23:48;;;;;;;5.38;2.88;;;1.60;99.90;;;;;;5106575;28;20024;-71
2021/12/01 10:26:18;;;;;;;5.07;2.67;;;1.70;99.90;;;;;;5089330;28;20035;-72
2021/12/01 10:28:48;;;;;;;5.97;2.65;;;1.80;99.90;;;;;;5087439;28;20024;-72
2021/12/01 10:31:14;;;;;;;5.30;2.72;;;1.80;99.90;;;;;;5095039;28;20027;-72
2021/12/01 10:33:41;;;;;;;5.20;2.53;;;1.90;99.90;;;;;;5105673;28;20077;-72
2021/12/01 10:36:09;;;;;;;4.80;2.80;;;2.00;99.90;;;;;;5098038;27;20882;-73
2021/12/01 10:38:38;;;;;;;4.43;2.22;;;2.10;99.70;;;;;;5086705;28;20026;-72
2021/12/01 10:41:13;;;;;;;5.82;2.53;;;2.20;99.90;;;;;;5086496;28;20486;-71
2021/12/01 10:43:46;;;;;;;5.53;2.63;;;2.40;99.90;;;;;;5087167;28;20607;-72
2021/12/01 10:46:17;;;;;;;4.38;2.10;;;2.60;99.80;;;;;;5096022;28;20048;-72
2021/12/01 10:48:58;;;;;;;5.53;2.95;;;2.70;99.60;;;;;;5107257;28;20045;-72
2021/12/01 10:51:39;;;;;;;4.55;2.35;;;2.90;99.30;;;;;;5100119;28;20034;-71
2021/12/01 10:54:17;;;;;;;5.43;1.95;;;3.10;98.80;;;;;;5099382;28;20027;-73
2021/12/01 10:56:43;;;;;;;3.05;1.75;;;3.20;98.40;;;;;;5089433;28;20061;-71
2021/12/01 10:59:15;;;;;;;4.05;2.00;;;3.40;98.10;;;;;;5106161;28;20036;-71
2021/12/01 11:01:41;;;;;;;4.97;1.92;;;3.40;97.80;;;;;;5104624;28;20473;-71
2021/12/01 11:04:07;;;;;;;4.10;2.15;;;3.50;97.80;;;;;;5107116;27;20027;-72
2021/12/01 11:06:40;;;;;;;4.93;2.47;;;3.70;97.70;;;;;;5100449;28;20055;-72
2021/12/01 11:09:07;;;;;;;3.78;1.80;;;3.70;97.50;;;;;;5094565;28;20031;-71
2021/12/01 11:11:45;;;;;;;9.55;4.43;;;3.80;97.20;;;;;;5105596;28;20030;-72
2021/12/01 11:14:17;;;;;;;4.93;2.63;;;3.90;97.20;;;;;;5103717;28;20077;-71
2021/12/01 11:16:44;;;;;;;6.10;2.80;;;4.10;97.40;;;;;;5091325;28;20028;-71
2021/12/01 11:19:12;;;;;;;5.88;3.30;;;4.40;97.40;;;;;;5106968;28;20116;-72
2021/12/01 11:21:39;;;;;;;5.05;2.53;;;4.40;97.40;;;;;;5103527;28;20028;-72
2021/12/01 11:24:08;;;;;;;6.32;3.33;;;4.20;97.30;;;;;;5086522;28;20027;-72
2021/12/01 11:26:35;;;;;;;5.97;2.40;;;4.20;97.10;;;;;;5090572;28;20039;-71
2021/12/01 11:29:03;;;;;;;4.90;2.53;;;4.20;96.90;;;;;;5100021;28;20558;-71
2021/12/01 11:31:49;;;;;;;4.95;2.60;;;4.20;96.70;;;;;;5103688;28;20115;-72
2021/12/01 11:34:17;;;;;;;5.53;2.85;;;4.40;97.00;;;;;;5103572;28;20130;-72
2021/12/01 11:36:47;;;;;;;6.05;2.78;;;4.40;96.80;;;;;;5099692;28;20110;-71
2021/12/01 11:39:19;;;;;;;4.70;2.25;;;4.50;96.40;;;;;;5091787;28;20028;-71
2021/12/01 11:41:47;;;;;;;5.38;2.42;;;4.70;96.60;;;;;;5095262;28;20026;-71
2021/12/01 11:44:14;;;;;;;5.90;2.60;;;4.90;96.50;;;;;;5107021;28;20080;-71
2021/12/01 11:46:40;;;;;;;5.03;3.08;;;4.80;96.10;;;;;;5103611;28;20043;-72
2021/12/01 11:49:11;;;;;;;5.07;2.35;;;4.90;96.30;;;;;;5088735;28;20028;-71
2021/12/01 11:51:59;;;;;;;6.22;3.20;;;5.00;96.00;;;;;;5090813;28;20032;-72
2021/12/01 11:54:26;;;;;;;7.18;4.90;;;5.10;96.30;;;;;;5106460;28;20518;-72
2021/12/01 11:56:58;;;;;;;5.43;3.42;;;5.10;95.90;;;;;;5090078;27;20028;-71
2021/12/01 11:59:26;;;;;;;5.93;3.08;;;5.00;95.90;;;;;;5100784;28;20555;-72
2021/12/01 12:02:00;;;;;;;5.45;3.00;;;5.00;96.10;;;;;;5089424;28;20080;-72
2021/12/01 12:04:29;;;;;;;6.22;2.63;;;5.00;96.20;;;;;;5098467;28;20032;-72
2021/12/01 12:07:07;;;;;;;6.07;2.85;;;4.80;96.10;;;;;;5090240;28;20876;-71
2021/12/01 12:09:34;;;;;;;5.63;2.70;;;4.80;96.20;;;;;;5102325;28;20378;-72
2021/12/01 12:12:00;;;;;;;4.85;2.50;;;4.70;96.00;;;;;;5095355;28;20050;-72
2021/12/01 12:14:36;;;;;;;6.03;2.50;;;4.70;96.50;;;;;;5108538;28;20464;-71
2021/12/01 12:17:33;;;;;;;6.07;2.45;;;4.80;96.20;;;;;;5098318;28;20024;-71
2021/12/01 12:20:33;;;;;;;5.75;2.85;;;4.90;96.30;;;;;;5107272;28;20478;-72
2021/12/01 12:23:02;;;;;;;7.68;3.17;;;5.10;96.00;;;;;;5093018;28;20438;-72
2021/12/01 12:25:54;;;;;;;34.30;11.02;;;5.20;95.90;;;;;;5086303;28;20403;-73
2021/12/01 12:28:28;;;;;;;8.02;3.58;;;5.20;95.00;;;;;;5099732;28;20111;-71
2021/12/01 12:31:01;;;;;;;6.65;2.97;;;5.20;94.90;;;;;;5108454;28;20024;-71
2021/12/01 12:33:38;;;;;;;9.50;3.60;;;5.30;95.20;;;;;;5088162;28;20905;-72
2021/12/01 12:36:10;;;;;;;4.45;2.42;;;5.30;95.00;;;;;;5087442;28;20024;-71
2021/12/01 12:38:38;;;;;;;5.75;2.72;;;5.50;94.90;;;;;;5100344;28;20174;-71
2021/12/01 12:41:12;;;;;;;5.18;2.47;;;5.70;95.10;;;;;;5106266;28;20031;-71
2021/12/01 12:43:43;;;;;;;6.00;3.83;;;5.80;95.10;;;;;;5087627;28;20042;-72
2021/12/01 12:46:12;;;;;;;10.38;3.45;;;5.80;95.20;;;;;;5087241;28;20048;-72
2021/12/01 12:48:44;;;;;;;6.95;2.95;;;5.80;94.90;;;;;;5101343;28;20531;-71
2021/12/01 12:51:26;;;;;;;6.00;2.63;;;5.70;94.60;;;;;;5107301;28;20020;-72
2021/12/01 12:54:14;;;;;;;8.48;2.85;;;5.70;94.90;;;;;;5094780;28;20030;-72
2021/12/01 12:56:47;;;;;;;4.53;2.35;;;5.70;95.10;;;;;;5103055;28;20050;-71
2021/12/01 12:59:21;;;;;;;4.90;2.80;;;5.60;94.60;;;;;;5094059;28;20027;-72
2021/12/01 13:02:14;;;;;;;9.63;3.33;;;5.70;94.80;;;;;;5106928;28;20469;-71
2021/12/01 13:04:50;;;;;;;5.35;3.10;;;5.70;94.90;;;;;;5088764;28;20370;-72
2021/12/01 13:07:46;;;;;;;6.88;2.83;;;5.80;95.40;;;;;;5086830;28;20065;-72
2021/12/01 13:10:25;;;;;;;8.10;2.63;;;5.90;94.80;;;;;;5094150;28;20428;-71